sensor_id;sensor_type;location;lat;lon;timestamp;P1;durP1;ratioP1;P2;durP2;ratioP2
51828;SDS011;37881;48.024;8.774;2022-12-29T00:00:03;8.47;;;4.60;;
51828;SDS011;37881;48.024;8.774;2022-12-29T00:02:31;6.38;;;3.40;;
51828;SDS011;37881;48.024;8.774;2022-12-29T00:04:58;7.07;;;3.60;;
51828;SDS011;37881;48.024;8.774;2022-12-29T00:07:25;11.40;;;5.80;;
51828;SDS011;37881;48.024;8.774;2022-12-29T00:09:52;7.22;;;3.70;;
51828;SDS011;37881;48.024;8.774;2022-12-29T00:12:18;8.17;;;2.80;;
51828;SDS011;37881;48.024;8.774;2022-12-29T00:14:45;6.72;;;3.10;;
51828;SDS011;37881;48.024;8.774;2022-12-29T00:17:30;6.45;;;3.20;;
51828;SDS011;37881;48.024;8.774;2022-12-29T00:19:57;7.55;;;3.25;;
51828;SDS011;37881;48.024;8.774;2022-12-29T00:22:43;6.20;;;3.10;;
51828;SDS011;37881;48.024;8.774;2022-12-29T00:25:28;6.23;;;2.87;;
51828;SDS011;37881;48.024;8.774;2022-12-29T00:28:13;6.10;;;2.75;;
51828;SDS011;37881;48.024;8.774;2022-12-29T00:30:59;5.43;;;2.53;;
51828;SDS011;37881;48.024;8.774;2022-12-29T00:33:44;5.30;;;2.47;;
51828;SDS011;37881;48.024;8.774;2022-12-29T00:38:57;6.95;;;2.35;;
51828;SDS011;37881;48.024;8.774;2022-12-29T00:41:45;5.82;;;2.55;;
51828;SDS011;37881;48.024;8.774;2022-12-29T00:44:32;5.20;;;2.72;;
51828;SDS011;37881;48.024;8.774;2022-12-29T00:46:59;6.10;;;2.72;;
51828;SDS011;37881;48.024;8.774;2022-12-29T00:49:29;4.38;;;2.75;;
51828;SDS011;37881;48.024;8.774;2022-12-29T00:52:01;5.37;;;2.07;;
51828;SDS011;37881;48.024;8.774;2022-12-29T00:54:33;4.45;;;2.10;;
51828;SDS011;37881;48.024;8.774;2022-12-29T00:57:01;4.78;;;2.10;;
51828;SDS011;37881;48.024;8.774;2022-12-29T00:59:29;5.28;;;2.15;;
51828;SDS011;37881;48.024;8.774;2022-12-29T01:01:55;4.75;;;1.80;;
51828;SDS011;37881;48.024;8.774;2022-12-29T01:04:24;4.83;;;1.80;;
51828;SDS011;37881;48.024;8.774;2022-12-29T01:06:52;3.50;;;1.50;;
51828;SDS011;37881;48.024;8.774;2022-12-29T01:09:19;8.38;;;2.05;;
51828;SDS011;37881;48.024;8.774;2022-12-29T01:12:05;5.97;;;2.08;;
51828;SDS011;37881;48.024;8.774;2022-12-29T01:14:33;4.70;;;2.05;;
51828;SDS011;37881;48.024;8.774;2022-12-29T01:17:00;6.03;;;2.10;;
51828;SDS011;37881;48.024;8.774;2022-12-29T01:19:27;5.22;;;2.15;;
51828;SDS011;37881;48.024;8.774;2022-12-29T01:21:53;3.03;;;1.40;;
51828;SDS011;37881;48.024;8.774;2022-12-29T01:24:20;3.55;;;1.98;;
51828;SDS011;37881;48.024;8.774;2022-12-29T01:26:47;3.95;;;1.80;;
51828;SDS011;37881;48.024;8.774;2022-12-29T01:29:14;3.80;;;1.73;;
51828;SDS011;37881;48.024;8.774;2022-12-29T01:31:42;4.72;;;1.90;;
51828;SDS011;37881;48.024;8.774;2022-12-29T01:34:09;5.40;;;2.10;;
51828;SDS011;37881;48.024;8.774;2022-12-29T01:36:36;3.78;;;1.75;;
51828;SDS011;37881;48.024;8.774;2022-12-29T01:39:02;7.50;;;3.13;;
51828;SDS011;37881;48.024;8.774;2022-12-29T01:41:29;3.60;;;1.43;;
51828;SDS011;37881;48.024;8.774;2022-12-29T01:43:57;3.72;;;1.77;;
51828;SDS011;37881;48.024;8.774;2022-12-29T01:46:31;6.03;;;1.60;;
51828;SDS011;37881;48.024;8.774;2022-12-29T01:49:08;5.63;;;1.95;;
51828;SDS011;37881;48.024;8.774;2022-12-29T01:51:59;3.53;;;1.63;;
51828;SDS011;37881;48.024;8.774;2022-12-29T01:54:31;3.60;;;1.87;;
51828;SDS011;37881;48.024;8.774;2022-12-29T01:57:10;4.05;;;1.73;;
51828;SDS011;37881;48.024;8.774;2022-12-29T01:59:42;5.60;;;1.85;;
51828;SDS011;37881;48.024;8.774;2022-12-29T02:02:14;4.93;;;2.10;;
51828;SDS011;37881;48.024;8.774;2022-12-29T02:04:43;3.92;;;1.92;;
51828;SDS011;37881;48.024;8.774;2022-12-29T02:07:14;3.40;;;1.50;;
51828;SDS011;37881;48.024;8.774;2022-12-29T02:09:48;4.68;;;1.60;;
51828;SDS011;37881;48.024;8.774;2022-12-29T02:12:19;4.38;;;1.55;;
51828;SDS011;37881;48.024;8.774;2022-12-29T02:14:47;5.45;;;2.03;;
51828;SDS011;37881;48.024;8.774;2022-12-29T02:17:20;4.35;;;1.50;;
51828;SDS011;37881;48.024;8.774;2022-12-29T02:29:00;3.67;;;1.70;;
51828;SDS011;37881;48.024;8.774;2022-12-29T02:37:07;3.97;;;1.95;;
51828;SDS011;37881;48.024;8.774;2022-12-29T02:39:52;3.78;;;1.40;;
51828;SDS011;37881;48.024;8.774;2022-12-29T02:42:34;4.10;;;1.65;;
51828;SDS011;37881;48.024;8.774;2022-12-29T02:50:49;4.55;;;1.75;;
51828;SDS011;37881;48.024;8.774;2022-12-29T02:53:24;3.53;;;1.50;;
51828;SDS011;37881;48.024;8.774;2022-12-29T02:56:15;3.15;;;1.40;;
51828;SDS011;37881;48.024;8.774;2022-12-29T02:58:43;5.50;;;1.70;;
51828;SDS011;37881;48.024;8.774;2022-12-29T03:03:54;4.78;;;1.60;;
51828;SDS011;37881;48.024;8.774;2022-12-29T03:12:11;4.50;;;1.70;;
51828;SDS011;37881;48.024;8.774;2022-12-29T03:20:07;4.25;;;1.30;;
51828;SDS011;37881;48.024;8.774;2022-12-29T03:22:38;6.10;;;1.65;;
51828;SDS011;37881;48.024;8.774;2022-12-29T03:25:42;3.90;;;1.60;;
51828;SDS011;37881;48.024;8.774;2022-12-29T03:28:08;3.33;;;1.60;;
51828;SDS011;37881;48.024;8.774;2022-12-29T03:30:39;2.50;;;1.10;;
51828;SDS011;37881;48.024;8.774;2022-12-29T03:33:08;4.97;;;1.67;;
51828;SDS011;37881;48.024;8.774;2022-12-29T03:35:38;4.30;;;1.40;;
51828;SDS011;37881;48.024;8.774;2022-12-29T03:38:16;3.63;;;1.92;;
51828;SDS011;37881;48.024;8.774;2022-12-29T03:41:07;4.43;;;1.83;;
51828;SDS011;37881;48.024;8.774;2022-12-29T03:43:37;3.42;;;1.52;;
51828;SDS011;37881;48.024;8.774;2022-12-29T03:46:04;4.10;;;1.75;;
51828;SDS011;37881;48.024;8.774;2022-12-29T03:48:30;3.97;;;1.70;;
51828;SDS011;37881;48.024;8.774;2022-12-29T03:50:59;4.15;;;1.45;;
51828;SDS011;37881;48.024;8.774;2022-12-29T03:53:26;3.03;;;1.70;;
51828;SDS011;37881;48.024;8.774;2022-12-29T03:55:53;5.78;;;2.13;;
51828;SDS011;37881;48.024;8.774;2022-12-29T03:58:19;3.08;;;1.50;;
51828;SDS011;37881;48.024;8.774;2022-12-29T04:00:46;4.85;;;1.80;;
51828;SDS011;37881;48.024;8.774;2022-12-29T04:03:13;8.10;;;2.15;;
51828;SDS011;37881;48.024;8.774;2022-12-29T04:05:40;4.77;;;2.07;;
51828;SDS011;37881;48.024;8.774;2022-12-29T04:08:06;4.38;;;1.80;;
51828;SDS011;37881;48.024;8.774;2022-12-29T04:10:33;4.47;;;1.70;;
51828;SDS011;37881;48.024;8.774;2022-12-29T04:13:00;3.88;;;1.52;;
51828;SDS011;37881;48.024;8.774;2022-12-29T04:15:27;3.47;;;1.70;;
51828;SDS011;37881;48.024;8.774;2022-12-29T04:17:53;4.17;;;1.80;;
51828;SDS011;37881;48.024;8.774;2022-12-29T04:20:20;3.85;;;1.58;;
51828;SDS011;37881;48.024;8.774;2022-12-29T04:23:06;4.43;;;2.08;;
51828;SDS011;37881;48.024;8.774;2022-12-29T04:25:33;4.07;;;1.70;;
51828;SDS011;37881;48.024;8.774;2022-12-29T04:28:00;5.30;;;1.80;;
51828;SDS011;37881;48.024;8.774;2022-12-29T04:30:27;4.27;;;1.60;;
51828;SDS011;37881;48.024;8.774;2022-12-29T04:32:53;3.05;;;1.60;;
51828;SDS011;37881;48.024;8.774;2022-12-29T04:35:20;5.82;;;2.17;;
51828;SDS011;37881;48.024;8.774;2022-12-29T04:37:47;8.93;;;2.70;;
51828;SDS011;37881;48.024;8.774;2022-12-29T04:40:14;5.70;;;2.17;;
51828;SDS011;37881;48.024;8.774;2022-12-29T04:42:41;4.50;;;1.67;;
51828;SDS011;37881;48.024;8.774;2022-12-29T04:45:07;7.03;;;1.92;;
51828;SDS011;37881;48.024;8.774;2022-12-29T04:47:34;4.00;;;1.67;;
51828;SDS011;37881;48.024;8.774;2022-12-29T04:50:01;5.45;;;2.00;;
51828;SDS011;37881;48.024;8.774;2022-12-29T04:52:28;5.50;;;1.80;;
51828;SDS011;37881;48.024;8.774;2022-12-29T04:54:54;3.70;;;1.80;;
51828;SDS011;37881;48.024;8.774;2022-12-29T04:57:21;5.00;;;1.60;;
51828;SDS011;37881;48.024;8.774;2022-12-29T04:59:48;6.22;;;2.97;;
51828;SDS011;37881;48.024;8.774;2022-12-29T05:02:15;7.88;;;4.78;;
51828;SDS011;37881;48.024;8.774;2022-12-29T05:04:43;6.97;;;2.90;;
51828;SDS011;37881;48.024;8.774;2022-12-29T05:07:10;5.87;;;2.80;;
51828;SDS011;37881;48.024;8.774;2022-12-29T05:09:37;8.18;;;2.65;;
51828;SDS011;37881;48.024;8.774;2022-12-29T05:12:04;5.65;;;2.00;;
51828;SDS011;37881;48.024;8.774;2022-12-29T05:14:31;5.03;;;2.03;;
51828;SDS011;37881;48.024;8.774;2022-12-29T05:16:58;4.95;;;2.38;;
51828;SDS011;37881;48.024;8.774;2022-12-29T05:19:25;5.70;;;2.33;;
51828;SDS011;37881;48.024;8.774;2022-12-29T05:21:51;4.75;;;2.10;;
51828;SDS011;37881;48.024;8.774;2022-12-29T05:24:18;3.90;;;1.80;;
51828;SDS011;37881;48.024;8.774;2022-12-29T05:26:45;10.15;;;4.40;;
51828;SDS011;37881;48.024;8.774;2022-12-29T05:29:12;12.52;;;5.28;;
51828;SDS011;37881;48.024;8.774;2022-12-29T05:31:38;31.33;;;13.13;;
51828;SDS011;37881;48.024;8.774;2022-12-29T05:34:05;21.13;;;7.60;;
51828;SDS011;37881;48.024;8.774;2022-12-29T05:36:32;23.65;;;7.70;;
51828;SDS011;37881;48.024;8.774;2022-12-29T05:39:03;22.73;;;8.50;;
51828;SDS011;37881;48.024;8.774;2022-12-29T05:41:30;5.47;;;2.20;;
51828;SDS011;37881;48.024;8.774;2022-12-29T05:43:56;4.67;;;1.93;;
51828;SDS011;37881;48.024;8.774;2022-12-29T05:46:23;5.90;;;1.90;;
51828;SDS011;37881;48.024;8.774;2022-12-29T05:48:50;16.10;;;7.05;;
51828;SDS011;37881;48.024;8.774;2022-12-29T05:51:16;5.85;;;3.00;;
51828;SDS011;37881;48.024;8.774;2022-12-29T05:53:43;4.95;;;2.00;;
51828;SDS011;37881;48.024;8.774;2022-12-29T05:56:10;7.10;;;3.43;;
51828;SDS011;37881;48.024;8.774;2022-12-29T05:58:36;5.78;;;2.45;;
51828;SDS011;37881;48.024;8.774;2022-12-29T06:01:03;4.93;;;2.05;;
51828;SDS011;37881;48.024;8.774;2022-12-29T06:03:30;4.80;;;2.15;;
51828;SDS011;37881;48.024;8.774;2022-12-29T06:05:57;4.78;;;2.00;;
51828;SDS011;37881;48.024;8.774;2022-12-29T06:08:24;11.37;;;6.57;;
51828;SDS011;37881;48.024;8.774;2022-12-29T06:10:50;6.03;;;2.50;;
51828;SDS011;37881;48.024;8.774;2022-12-29T06:13:17;15.32;;;9.27;;
51828;SDS011;37881;48.024;8.774;2022-12-29T06:15:44;12.63;;;7.05;;
51828;SDS011;37881;48.024;8.774;2022-12-29T06:18:10;7.30;;;2.10;;
51828;SDS011;37881;48.024;8.774;2022-12-29T06:20:45;5.17;;;2.80;;
51828;SDS011;37881;48.024;8.774;2022-12-29T06:23:12;5.55;;;2.50;;
51828;SDS011;37881;48.024;8.774;2022-12-29T06:25:39;8.05;;;4.07;;
51828;SDS011;37881;48.024;8.774;2022-12-29T06:28:06;5.28;;;2.70;;
51828;SDS011;37881;48.024;8.774;2022-12-29T06:30:33;15.32;;;8.50;;
51828;SDS011;37881;48.024;8.774;2022-12-29T06:32:59;6.37;;;2.77;;
51828;SDS011;37881;48.024;8.774;2022-12-29T06:35:26;6.63;;;2.72;;
51828;SDS011;37881;48.024;8.774;2022-12-29T06:37:53;7.32;;;2.47;;
51828;SDS011;37881;48.024;8.774;2022-12-29T06:40:19;7.00;;;3.17;;
51828;SDS011;37881;48.024;8.774;2022-12-29T06:42:48;10.63;;;5.28;;
51828;SDS011;37881;48.024;8.774;2022-12-29T06:45:14;8.13;;;4.60;;
51828;SDS011;37881;48.024;8.774;2022-12-29T06:47:42;8.85;;;3.25;;
51828;SDS011;37881;48.024;8.774;2022-12-29T06:50:09;12.73;;;5.53;;
51828;SDS011;37881;48.024;8.774;2022-12-29T06:52:35;6.63;;;2.65;;
51828;SDS011;37881;48.024;8.774;2022-12-29T06:55:02;14.55;;;6.57;;
51828;SDS011;37881;48.024;8.774;2022-12-29T06:57:29;15.53;;;6.77;;
51828;SDS011;37881;48.024;8.774;2022-12-29T06:59:56;8.80;;;4.32;;
51828;SDS011;37881;48.024;8.774;2022-12-29T07:02:23;6.22;;;2.45;;
51828;SDS011;37881;48.024;8.774;2022-12-29T07:04:52;5.47;;;2.50;;
51828;SDS011;37881;48.024;8.774;2022-12-29T07:07:19;13.05;;;7.53;;
51828;SDS011;37881;48.024;8.774;2022-12-29T07:09:47;14.20;;;7.17;;
51828;SDS011;37881;48.024;8.774;2022-12-29T07:12:13;6.35;;;3.20;;
51828;SDS011;37881;48.024;8.774;2022-12-29T07:14:40;7.70;;;4.07;;
51828;SDS011;37881;48.024;8.774;2022-12-29T07:17:09;5.95;;;2.70;;
51828;SDS011;37881;48.024;8.774;2022-12-29T07:19:36;4.57;;;2.28;;
51828;SDS011;37881;48.024;8.774;2022-12-29T07:22:02;6.97;;;3.47;;
51828;SDS011;37881;48.024;8.774;2022-12-29T07:24:29;8.45;;;3.33;;
51828;SDS011;37881;48.024;8.774;2022-12-29T07:26:56;7.65;;;3.08;;
51828;SDS011;37881;48.024;8.774;2022-12-29T07:29:23;6.43;;;2.80;;
51828;SDS011;37881;48.024;8.774;2022-12-29T07:31:50;5.65;;;2.63;;
51828;SDS011;37881;48.024;8.774;2022-12-29T07:34:17;5.63;;;2.57;;
51828;SDS011;37881;48.024;8.774;2022-12-29T07:36:43;7.07;;;2.80;;
51828;SDS011;37881;48.024;8.774;2022-12-29T07:39:10;6.40;;;2.65;;
51828;SDS011;37881;48.024;8.774;2022-12-29T07:41:37;5.20;;;2.70;;
51828;SDS011;37881;48.024;8.774;2022-12-29T07:44:04;6.13;;;2.53;;
51828;SDS011;37881;48.024;8.774;2022-12-29T07:46:31;9.63;;;2.70;;
51828;SDS011;37881;48.024;8.774;2022-12-29T07:49:17;5.72;;;2.90;;
51828;SDS011;37881;48.024;8.774;2022-12-29T07:51:44;5.63;;;2.65;;
51828;SDS011;37881;48.024;8.774;2022-12-29T07:54:11;5.70;;;3.00;;
51828;SDS011;37881;48.024;8.774;2022-12-29T07:56:38;7.10;;;2.72;;
51828;SDS011;37881;48.024;8.774;2022-12-29T07:59:05;6.27;;;2.80;;
51828;SDS011;37881;48.024;8.774;2022-12-29T08:01:32;7.75;;;3.08;;
51828;SDS011;37881;48.024;8.774;2022-12-29T08:03:59;7.60;;;3.30;;
51828;SDS011;37881;48.024;8.774;2022-12-29T08:06:25;6.80;;;2.80;;
51828;SDS011;37881;48.024;8.774;2022-12-29T08:08:52;6.55;;;2.90;;
51828;SDS011;37881;48.024;8.774;2022-12-29T08:11:19;6.07;;;2.43;;
51828;SDS011;37881;48.024;8.774;2022-12-29T08:13:46;5.95;;;2.50;;
51828;SDS011;37881;48.024;8.774;2022-12-29T08:16:13;6.47;;;2.60;;
51828;SDS011;37881;48.024;8.774;2022-12-29T08:18:39;5.90;;;3.10;;
51828;SDS011;37881;48.024;8.774;2022-12-29T08:21:06;7.15;;;3.00;;
51828;SDS011;37881;48.024;8.774;2022-12-29T08:23:33;6.23;;;2.90;;
51828;SDS011;37881;48.024;8.774;2022-12-29T08:26:00;7.18;;;3.15;;
51828;SDS011;37881;48.024;8.774;2022-12-29T08:28:28;6.25;;;2.92;;
51828;SDS011;37881;48.024;8.774;2022-12-29T08:30:59;5.35;;;2.58;;
51828;SDS011;37881;48.024;8.774;2022-12-29T08:33:27;6.68;;;3.03;;
51828;SDS011;37881;48.024;8.774;2022-12-29T08:35:59;6.90;;;3.10;;
51828;SDS011;37881;48.024;8.774;2022-12-29T08:38:27;7.93;;;3.03;;
51828;SDS011;37881;48.024;8.774;2022-12-29T08:40:58;6.03;;;2.75;;
51828;SDS011;37881;48.024;8.774;2022-12-29T08:43:27;7.05;;;2.92;;
51828;SDS011;37881;48.024;8.774;2022-12-29T08:45:54;8.57;;;2.78;;
51828;SDS011;37881;48.024;8.774;2022-12-29T08:48:21;6.23;;;2.70;;
51828;SDS011;37881;48.024;8.774;2022-12-29T08:50:49;6.82;;;2.83;;
51828;SDS011;37881;48.024;8.774;2022-12-29T08:53:17;8.15;;;3.13;;
51828;SDS011;37881;48.024;8.774;2022-12-29T08:55:53;6.03;;;2.45;;
51828;SDS011;37881;48.024;8.774;2022-12-29T08:58:29;6.72;;;2.42;;
51828;SDS011;37881;48.024;8.774;2022-12-29T09:00:57;7.63;;;2.93;;
51828;SDS011;37881;48.024;8.774;2022-12-29T09:03:24;5.45;;;2.38;;
51828;SDS011;37881;48.024;8.774;2022-12-29T09:06:11;5.50;;;2.55;;
51828;SDS011;37881;48.024;8.774;2022-12-29T09:08:38;5.20;;;2.60;;
51828;SDS011;37881;48.024;8.774;2022-12-29T09:11:09;5.40;;;2.35;;
51828;SDS011;37881;48.024;8.774;2022-12-29T09:13:38;4.60;;;1.87;;
51828;SDS011;37881;48.024;8.774;2022-12-29T09:16:05;5.22;;;1.80;;
51828;SDS011;37881;48.024;8.774;2022-12-29T09:18:33;7.47;;;2.88;;
51828;SDS011;37881;48.024;8.774;2022-12-29T09:21:00;7.05;;;2.85;;
51828;SDS011;37881;48.024;8.774;2022-12-29T09:23:29;10.07;;;3.33;;
51828;SDS011;37881;48.024;8.774;2022-12-29T09:25:56;7.43;;;2.80;;
51828;SDS011;37881;48.024;8.774;2022-12-29T09:28:23;8.43;;;3.55;;
51828;SDS011;37881;48.024;8.774;2022-12-29T09:30:50;7.90;;;3.45;;
51828;SDS011;37881;48.024;8.774;2022-12-29T09:33:17;6.10;;;2.80;;
51828;SDS011;37881;48.024;8.774;2022-12-29T09:35:45;9.55;;;3.05;;
51828;SDS011;37881;48.024;8.774;2022-12-29T09:38:16;5.33;;;2.37;;
51828;SDS011;37881;48.024;8.774;2022-12-29T09:40:44;6.03;;;2.47;;
51828;SDS011;37881;48.024;8.774;2022-12-29T09:46:24;4.95;;;2.17;;
51828;SDS011;37881;48.024;8.774;2022-12-29T09:51:28;6.27;;;2.23;;
51828;SDS011;37881;48.024;8.774;2022-12-29T09:53:57;5.68;;;2.40;;
51828;SDS011;37881;48.024;8.774;2022-12-29T09:56:26;6.55;;;2.38;;
51828;SDS011;37881;48.024;8.774;2022-12-29T09:58:55;4.95;;;2.00;;
51828;SDS011;37881;48.024;8.774;2022-12-29T10:01:31;4.70;;;2.30;;
51828;SDS011;37881;48.024;8.774;2022-12-29T10:04:03;4.57;;;1.80;;
51828;SDS011;37881;48.024;8.774;2022-12-29T10:06:52;7.20;;;1.80;;
51828;SDS011;37881;48.024;8.774;2022-12-29T10:15:18;3.97;;;2.00;;
51828;SDS011;37881;48.024;8.774;2022-12-29T10:20:58;4.18;;;1.83;;
51828;SDS011;37881;48.024;8.774;2022-12-29T10:23:44;4.47;;;2.00;;
51828;SDS011;37881;48.024;8.774;2022-12-29T10:26:15;5.65;;;2.20;;
51828;SDS011;37881;48.024;8.774;2022-12-29T10:28:46;7.90;;;2.40;;
51828;SDS011;37881;48.024;8.774;2022-12-29T10:31:19;4.40;;;2.10;;
51828;SDS011;37881;48.024;8.774;2022-12-29T10:33:59;6.70;;;2.28;;
51828;SDS011;37881;48.024;8.774;2022-12-29T10:41:49;5.88;;;2.10;;
51828;SDS011;37881;48.024;8.774;2022-12-29T10:44:30;7.37;;;2.50;;
51828;SDS011;37881;48.024;8.774;2022-12-29T10:46:59;4.47;;;2.10;;
51828;SDS011;37881;48.024;8.774;2022-12-29T10:49:28;4.20;;;2.00;;
51828;SDS011;37881;48.024;8.774;2022-12-29T10:51:58;6.45;;;2.35;;
51828;SDS011;37881;48.024;8.774;2022-12-29T10:57:24;4.03;;;1.73;;
51828;SDS011;37881;48.024;8.774;2022-12-29T10:59:54;6.88;;;2.70;;
51828;SDS011;37881;48.024;8.774;2022-12-29T11:05:09;4.93;;;1.67;;
51828;SDS011;37881;48.024;8.774;2022-12-29T11:07:49;4.65;;;2.03;;
51828;SDS011;37881;48.024;8.774;2022-12-29T11:10:30;6.03;;;1.90;;
51828;SDS011;37881;48.024;8.774;2022-12-29T11:13:16;4.22;;;2.00;;
51828;SDS011;37881;48.024;8.774;2022-12-29T11:18:53;5.55;;;1.77;;
51828;SDS011;37881;48.024;8.774;2022-12-29T11:21:06;5.10;;;1.90;;
51828;SDS011;37881;48.024;8.774;2022-12-29T11:24:03;3.87;;;1.97;;
51828;SDS011;37881;48.024;8.774;2022-12-29T11:26:32;6.70;;;2.90;;
51828;SDS011;37881;48.024;8.774;2022-12-29T11:29:05;4.35;;;2.00;;
51828;SDS011;37881;48.024;8.774;2022-12-29T11:31:50;4.72;;;2.00;;
51828;SDS011;37881;48.024;8.774;2022-12-29T11:36:58;4.50;;;2.30;;
51828;SDS011;37881;48.024;8.774;2022-12-29T11:42:13;4.15;;;2.00;;
51828;SDS011;37881;48.024;8.774;2022-12-29T11:44:46;6.18;;;2.65;;
51828;SDS011;37881;48.024;8.774;2022-12-29T11:47:23;5.82;;;2.53;;
51828;SDS011;37881;48.024;8.774;2022-12-29T11:49:57;6.33;;;2.70;;
51828;SDS011;37881;48.024;8.774;2022-12-29T11:52:31;7.90;;;2.20;;
51828;SDS011;37881;48.024;8.774;2022-12-29T11:55:02;5.50;;;2.25;;
51828;SDS011;37881;48.024;8.774;2022-12-29T11:57:32;5.68;;;2.25;;
51828;SDS011;37881;48.024;8.774;2022-12-29T12:00:03;6.15;;;2.78;;
51828;SDS011;37881;48.024;8.774;2022-12-29T12:02:45;4.87;;;2.10;;
51828;SDS011;37881;48.024;8.774;2022-12-29T12:08:17;5.38;;;2.25;;
51828;SDS011;37881;48.024;8.774;2022-12-29T12:11:10;4.00;;;1.88;;
51828;SDS011;37881;48.024;8.774;2022-12-29T12:16:37;5.83;;;2.50;;
51828;SDS011;37881;48.024;8.774;2022-12-29T12:19:20;9.27;;;3.40;;
51828;SDS011;37881;48.024;8.774;2022-12-29T12:22:01;4.35;;;2.20;;
51828;SDS011;37881;48.024;8.774;2022-12-29T12:24:50;4.63;;;2.10;;
51828;SDS011;37881;48.024;8.774;2022-12-29T12:27:23;8.07;;;2.90;;
51828;SDS011;37881;48.024;8.774;2022-12-29T12:35:00;5.65;;;1.90;;
51828;SDS011;37881;48.024;8.774;2022-12-29T13:02:01;6.18;;;2.00;;
51828;SDS011;37881;48.024;8.774;2022-12-29T13:08:24;10.32;;;2.63;;
51828;SDS011;37881;48.024;8.774;2022-12-29T13:18:56;6.97;;;2.45;;
51828;SDS011;37881;48.024;8.774;2022-12-29T13:21:35;5.13;;;2.85;;
51828;SDS011;37881;48.024;8.774;2022-12-29T13:24:25;6.33;;;2.77;;
51828;SDS011;37881;48.024;8.774;2022-12-29T13:30:21;4.43;;;1.70;;
51828;SDS011;37881;48.024;8.774;2022-12-29T13:38:01;4.60;;;2.00;;
51828;SDS011;37881;48.024;8.774;2022-12-29T13:40:41;4.88;;;2.30;;
51828;SDS011;37881;48.024;8.774;2022-12-29T13:43:13;3.20;;;1.60;;
51828;SDS011;37881;48.024;8.774;2022-12-29T13:45:42;3.92;;;1.60;;
51828;SDS011;37881;48.024;8.774;2022-12-29T13:50:38;4.10;;;1.77;;
51828;SDS011;37881;48.024;8.774;2022-12-29T13:55:52;3.70;;;1.85;;
51828;SDS011;37881;48.024;8.774;2022-12-29T13:58:27;3.38;;;1.48;;
51828;SDS011;37881;48.024;8.774;2022-12-29T14:03:49;4.40;;;1.60;;
51828;SDS011;37881;48.024;8.774;2022-12-29T14:06:25;5.22;;;1.88;;
51828;SDS011;37881;48.024;8.774;2022-12-29T14:08:55;3.25;;;1.40;;
51828;SDS011;37881;48.024;8.774;2022-12-29T14:11:32;3.88;;;1.70;;
51828;SDS011;37881;48.024;8.774;2022-12-29T14:14:10;2.60;;;1.30;;
51828;SDS011;37881;48.024;8.774;2022-12-29T14:16:40;3.20;;;1.00;;
51828;SDS011;37881;48.024;8.774;2022-12-29T14:19:11;3.67;;;1.30;;
51828;SDS011;37881;48.024;8.774;2022-12-29T14:21:38;3.25;;;1.17;;
51828;SDS011;37881;48.024;8.774;2022-12-29T14:26:54;3.33;;;1.65;;
51828;SDS011;37881;48.024;8.774;2022-12-29T14:31:51;6.13;;;1.70;;
51828;SDS011;37881;48.024;8.774;2022-12-29T14:39:54;4.35;;;1.98;;
51828;SDS011;37881;48.024;8.774;2022-12-29T14:44:50;3.78;;;1.30;;
51828;SDS011;37881;48.024;8.774;2022-12-29T14:47:19;3.15;;;1.13;;
51828;SDS011;37881;48.024;8.774;2022-12-29T14:49:51;3.47;;;1.38;;
51828;SDS011;37881;48.024;8.774;2022-12-29T14:52:19;2.97;;;1.50;;
51828;SDS011;37881;48.024;8.774;2022-12-29T14:54:52;3.30;;;1.20;;
51828;SDS011;37881;48.024;8.774;2022-12-29T14:57:42;4.97;;;1.45;;
51828;SDS011;37881;48.024;8.774;2022-12-29T15:00:19;4.15;;;1.70;;
51828;SDS011;37881;48.024;8.774;2022-12-29T15:03:07;2.90;;;1.30;;
51828;SDS011;37881;48.024;8.774;2022-12-29T15:05:44;3.72;;;1.45;;
51828;SDS011;37881;48.024;8.774;2022-12-29T15:08:18;4.07;;;1.40;;
51828;SDS011;37881;48.024;8.774;2022-12-29T15:10:54;3.67;;;1.48;;
51828;SDS011;37881;48.024;8.774;2022-12-29T15:13:37;2.95;;;1.52;;
51828;SDS011;37881;48.024;8.774;2022-12-29T15:16:20;3.85;;;1.65;;
51828;SDS011;37881;48.024;8.774;2022-12-29T15:18:49;4.05;;;1.83;;
51828;SDS011;37881;48.024;8.774;2022-12-29T15:21:16;5.80;;;2.87;;
51828;SDS011;37881;48.024;8.774;2022-12-29T15:23:44;4.45;;;1.70;;
51828;SDS011;37881;48.024;8.774;2022-12-29T15:26:11;3.45;;;1.60;;
51828;SDS011;37881;48.024;8.774;2022-12-29T15:28:47;3.17;;;1.35;;
51828;SDS011;37881;48.024;8.774;2022-12-29T15:31:16;3.63;;;1.45;;
51828;SDS011;37881;48.024;8.774;2022-12-29T15:34:08;4.23;;;1.60;;
51828;SDS011;37881;48.024;8.774;2022-12-29T15:36:38;5.03;;;1.70;;
51828;SDS011;37881;48.024;8.774;2022-12-29T15:39:19;4.10;;;2.00;;
51828;SDS011;37881;48.024;8.774;2022-12-29T15:41:59;5.47;;;1.55;;
51828;SDS011;37881;48.024;8.774;2022-12-29T15:44:34;3.78;;;2.10;;
51828;SDS011;37881;48.024;8.774;2022-12-29T15:47:05;4.00;;;1.53;;
51828;SDS011;37881;48.024;8.774;2022-12-29T15:49:38;3.65;;;1.75;;
51828;SDS011;37881;48.024;8.774;2022-12-29T15:52:08;4.60;;;2.10;;
51828;SDS011;37881;48.024;8.774;2022-12-29T15:54:36;5.43;;;2.40;;
51828;SDS011;37881;48.024;8.774;2022-12-29T15:57:04;3.80;;;2.00;;
51828;SDS011;37881;48.024;8.774;2022-12-29T15:59:46;3.83;;;1.63;;
51828;SDS011;37881;48.024;8.774;2022-12-29T16:02:14;3.20;;;1.63;;
51828;SDS011;37881;48.024;8.774;2022-12-29T16:04:41;3.35;;;1.50;;
51828;SDS011;37881;48.024;8.774;2022-12-29T16:07:30;3.72;;;1.65;;
51828;SDS011;37881;48.024;8.774;2022-12-29T16:10:20;3.25;;;1.90;;
51828;SDS011;37881;48.024;8.774;2022-12-29T16:13:20;4.37;;;1.97;;
51828;SDS011;37881;48.024;8.774;2022-12-29T16:15:49;3.47;;;1.88;;
51828;SDS011;37881;48.024;8.774;2022-12-29T16:18:24;3.70;;;1.50;;
51828;SDS011;37881;48.024;8.774;2022-12-29T16:20:54;4.30;;;1.70;;
51828;SDS011;37881;48.024;8.774;2022-12-29T16:23:24;4.35;;;1.80;;
51828;SDS011;37881;48.024;8.774;2022-12-29T16:25:53;4.73;;;1.90;;
51828;SDS011;37881;48.024;8.774;2022-12-29T16:28:24;4.22;;;2.05;;
51828;SDS011;37881;48.024;8.774;2022-12-29T16:30:59;5.43;;;2.50;;
51828;SDS011;37881;48.024;8.774;2022-12-29T16:33:38;5.85;;;2.60;;
51828;SDS011;37881;48.024;8.774;2022-12-29T16:36:21;5.25;;;2.40;;
51828;SDS011;37881;48.024;8.774;2022-12-29T16:39:15;6.27;;;2.50;;
51828;SDS011;37881;48.024;8.774;2022-12-29T16:41:50;5.00;;;2.30;;
51828;SDS011;37881;48.024;8.774;2022-12-29T16:49:38;6.03;;;3.22;;
51828;SDS011;37881;48.024;8.774;2022-12-29T16:52:12;5.87;;;3.03;;
51828;SDS011;37881;48.024;8.774;2022-12-29T16:54:48;7.88;;;2.70;;
51828;SDS011;37881;48.024;8.774;2022-12-29T16:57:31;7.85;;;3.35;;
51828;SDS011;37881;48.024;8.774;2022-12-29T17:00:04;7.05;;;3.90;;
51828;SDS011;37881;48.024;8.774;2022-12-29T17:02:44;7.88;;;4.15;;
51828;SDS011;37881;48.024;8.774;2022-12-29T17:05:12;11.40;;;5.23;;
51828;SDS011;37881;48.024;8.774;2022-12-29T17:07:40;11.77;;;4.88;;
51828;SDS011;37881;48.024;8.774;2022-12-29T17:10:07;35.17;;;13.57;;
51828;SDS011;37881;48.024;8.774;2022-12-29T17:12:34;19.13;;;9.00;;
51828;SDS011;37881;48.024;8.774;2022-12-29T17:15:03;46.75;;;18.85;;
51828;SDS011;37881;48.024;8.774;2022-12-29T17:17:43;40.40;;;17.37;;
51828;SDS011;37881;48.024;8.774;2022-12-29T17:20:16;23.70;;;11.38;;
51828;SDS011;37881;48.024;8.774;2022-12-29T17:22:44;28.05;;;13.40;;
51828;SDS011;37881;48.024;8.774;2022-12-29T17:25:12;18.20;;;9.50;;
51828;SDS011;37881;48.024;8.774;2022-12-29T17:27:42;10.95;;;6.38;;
51828;SDS011;37881;48.024;8.774;2022-12-29T17:30:19;22.77;;;14.83;;
51828;SDS011;37881;48.024;8.774;2022-12-29T17:32:53;12.68;;;8.50;;
51828;SDS011;37881;48.024;8.774;2022-12-29T17:35:25;15.63;;;8.30;;
51828;SDS011;37881;48.024;8.774;2022-12-29T17:37:52;7.75;;;3.40;;
51828;SDS011;37881;48.024;8.774;2022-12-29T17:40:23;13.15;;;6.50;;
51828;SDS011;37881;48.024;8.774;2022-12-29T17:42:53;13.47;;;7.73;;